createdAt,value
2018-12-12T00:03:54.899Z,57.50
2018-12-12T00:08:58.194Z,57.70
2018-12-12T00:14:01.448Z,57.50
2018-12-12T00:19:04.723Z,57.40
2018-12-12T00:24:07.945Z,57.80
2018-12-12T00:29:11.151Z,57.90
2018-12-12T00:34:14.365Z,57.70
2018-12-12T00:39:24.262Z,57.60
2018-12-12T00:44:27.487Z,57.70
2018-12-12T00:49:30.703Z,57.40
2018-12-12T00:54:34.478Z,57.60
2018-12-12T00:59:37.641Z,57.60
2018-12-12T01:04:40.809Z,57.30
2018-12-12T01:09:43.954Z,57.70
2018-12-12T01:14:47.188Z,57.60
2018-12-12T01:19:50.391Z,57.40
2018-12-12T01:24:53.605Z,57.20
2018-12-12T01:29:56.776Z,57.70
2018-12-12T01:35:00.005Z,57.20
2018-12-12T01:40:03.238Z,57.20
2018-12-12T01:45:06.431Z,57.40
2018-12-12T01:50:09.730Z,57.30
2018-12-12T01:55:13.041Z,57.20
2018-12-12T02:00:16.304Z,56.90
2018-12-12T02:05:19.515Z,57.30
2018-12-12T02:10:23.163Z,57.20
2018-12-12T02:15:26.367Z,57.40
2018-12-12T02:20:29.609Z,57.30
2018-12-12T02:25:32.818Z,57.20
2018-12-12T02:30:36.090Z,57.20
2018-12-12T02:35:39.313Z,57.90
2018-12-12T02:40:42.532Z,57.20
2018-12-12T02:45:45.886Z,57.50
2018-12-12T02:50:49.064Z,57.20
2018-12-12T02:55:52.331Z,57.40
2018-12-12T03:00:55.512Z,57.50
2018-12-12T03:05:58.693Z,57.50
2018-12-12T03:11:02.138Z,57.30
2018-12-12T03:16:05.663Z,57.50
2018-12-12T03:21:08.878Z,57.40
2018-12-12T03:26:12.107Z,57.40
2018-12-12T03:31:15.313Z,57.40
2018-12-12T03:36:18.490Z,57.50
2018-12-12T03:41:21.706Z,57.50
2018-12-12T03:46:24.884Z,57.50
2018-12-12T03:51:28.092Z,57.70
2018-12-12T03:56:31.333Z,57.40
2018-12-12T04:01:34.719Z,57.70
2018-12-12T04:06:37.946Z,57.50
2018-12-12T04:11:41.252Z,57.60
2018-12-12T04:16:44.504Z,58.40
2018-12-12T04:21:47.700Z,57.70
2018-12-12T04:26:50.914Z,58.20
2018-12-12T04:31:54.483Z,57.90
2018-12-12T04:36:57.746Z,58.20
2018-12-12T04:42:00.932Z,58.30
2018-12-12T04:47:04.236Z,58.30
2018-12-12T04:52:07.443Z,58.20
2018-12-12T04:57:10.688Z,58.20
2018-12-12T05:02:15.864Z,58.20
2018-12-12T05:07:19.083Z,58.50
2018-12-12T05:12:22.346Z,58.60
2018-12-12T05:17:25.569Z,58.60
2018-12-12T05:22:28.765Z,58.70
2018-12-12T05:27:32.183Z,58.60
2018-12-12T05:32:35.409Z,58.20
2018-12-12T05:37:38.616Z,58.10
2018-12-12T05:42:41.976Z,58.10
2018-12-12T05:47:45.191Z,58.30
2018-12-12T05:52:48.565Z,58.60
2018-12-12T05:57:51.797Z,58.40
2018-12-12T06:02:54.996Z,58.40
2018-12-12T06:07:58.481Z,58.40
2018-12-12T06:13:01.758Z,58.00
2018-12-12T06:18:04.998Z,58.00
2018-12-12T06:23:08.332Z,58.10
2018-12-12T06:28:11.569Z,57.90
2018-12-12T06:33:14.799Z,57.60
2018-12-12T06:38:18.045Z,57.50
2018-12-12T06:43:21.247Z,57.30
2018-12-12T06:48:24.495Z,57.30
2018-12-12T06:53:28.584Z,57.40
2018-12-12T06:58:31.846Z,57.00
2018-12-12T07:03:35.448Z,57.00
2018-12-12T07:08:39.069Z,57.10
2018-12-12T07:13:42.290Z,57.20
2018-12-12T07:18:45.563Z,57.20
2018-12-12T07:23:48.812Z,57.00
2018-12-12T07:28:52.076Z,56.80
2018-12-12T07:34:00.858Z,56.70
2018-12-12T07:39:01.307Z,57.00
2018-12-12T07:44:05.036Z,57.20
2018-12-12T07:49:08.707Z,57.00
2018-12-12T07:54:12.086Z,57.20
2018-12-12T07:59:15.350Z,58.30
2018-12-12T08:04:18.610Z,58.50
2018-12-12T08:09:22.535Z,57.70
2018-12-12T08:14:25.989Z,57.10
2018-12-12T08:19:29.421Z,57.70
2018-12-12T08:24:33.565Z,57.30
2018-12-12T08:29:36.775Z,57.10
2018-12-12T08:34:40.073Z,56.70
2018-12-12T08:39:43.309Z,56.80
2018-12-12T08:44:46.555Z,57.00
2018-12-12T08:49:49.952Z,56.40
2018-12-12T08:54:53.244Z,56.70
2018-12-12T08:59:57.553Z,56.70
2018-12-12T09:05:00.791Z,56.90
2018-12-12T09:10:05.019Z,56.80
2018-12-12T09:15:08.294Z,56.70
2018-12-12T09:20:11.548Z,56.70
2018-12-12T09:25:14.810Z,57.40
2018-12-12T09:30:18.005Z,56.80
2018-12-12T09:35:21.585Z,56.90
2018-12-12T09:40:24.801Z,57.20
2018-12-12T09:45:28.028Z,57.10
2018-12-12T09:50:31.903Z,56.80
2018-12-12T09:55:35.119Z,58.00
2018-12-12T10:00:38.405Z,57.30
2018-12-12T10:05:41.671Z,57.00
2018-12-12T10:10:45.257Z,57.20
2018-12-12T10:15:48.517Z,57.20
2018-12-12T10:20:51.821Z,57.40
2018-12-12T10:25:55.289Z,57.50
2018-12-12T10:30:58.549Z,57.50
2018-12-12T10:36:02.073Z,58.00
2018-12-12T10:41:05.379Z,58.00
2018-12-12T10:46:10.194Z,58.20
2018-12-12T10:51:13.468Z,58.20
2018-12-12T10:56:16.737Z,58.20
2018-12-12T11:01:27.686Z,58.20
2018-12-12T11:06:31.006Z,58.50
2018-12-12T11:11:34.458Z,58.30
2018-12-12T11:16:37.873Z,58.50
2018-12-12T11:21:41.123Z,58.60
2018-12-12T11:26:44.398Z,59.10
2018-12-12T11:31:47.653Z,59.00
2018-12-12T11:36:50.926Z,58.70
2018-12-12T11:41:54.222Z,59.10
2018-12-12T11:46:58.040Z,59.10
2018-12-12T11:52:01.735Z,59.30
2018-12-12T11:57:05.309Z,59.60
2018-12-12T12:02:09.344Z,59.60
2018-12-12T12:07:12.622Z,59.50
2018-12-12T12:12:15.888Z,59.10
2018-12-12T12:17:19.939Z,59.40
2018-12-12T12:22:23.170Z,59.10
2018-12-12T12:27:26.472Z,58.90
2018-12-12T12:32:29.789Z,59.00
2018-12-12T12:37:32.987Z,59.10
2018-12-12T12:42:36.488Z,58.90
2018-12-12T12:47:40.300Z,59.00
2018-12-12T12:52:43.612Z,58.90
2018-12-12T12:57:46.845Z,59.30
2018-12-12T13:02:50.154Z,58.90
2018-12-12T13:07:53.394Z,59.10
2018-12-12T13:12:57.090Z,58.80
2018-12-12T13:18:00.694Z,59.10
2018-12-12T13:23:03.982Z,59.00
2018-12-12T13:28:07.345Z,58.60
2018-12-12T13:33:10.657Z,59.20
2018-12-12T13:38:13.917Z,59.30
2018-12-12T13:43:17.476Z,59.70
2018-12-12T13:48:20.883Z,59.70
2018-12-12T13:53:24.174Z,59.80
2018-12-12T13:58:27.427Z,59.80
2018-12-12T14:03:30.711Z,59.60
2018-12-12T14:08:41.207Z,59.50
2018-12-12T14:13:45.516Z,59.50
2018-12-12T14:18:49.139Z,59.40
2018-12-12T14:23:52.592Z,59.60
2018-12-12T14:28:55.916Z,59.60
2018-12-12T14:33:59.159Z,59.60
2018-12-12T14:39:03.013Z,59.60
2018-12-12T14:44:06.486Z,58.90
2018-12-12T14:49:09.763Z,58.80
2018-12-12T14:54:13.161Z,58.80
2018-12-12T14:59:16.455Z,58.80
2018-12-12T15:04:19.763Z,59.30
2018-12-12T15:09:23.173Z,58.80
2018-12-12T15:14:26.394Z,58.50
2018-12-12T15:19:29.698Z,58.50
2018-12-12T15:24:32.972Z,58.20
2018-12-12T15:29:36.317Z,58.00
2018-12-12T15:34:42.432Z,58.50
2018-12-12T15:39:45.370Z,58.40
2018-12-12T15:44:48.680Z,58.00
2018-12-12T15:49:52.258Z,58.50
2018-12-12T15:54:55.477Z,58.90
2018-12-12T15:59:58.962Z,59.10
2018-12-12T16:05:02.214Z,58.60
2018-12-12T16:10:05.854Z,58.00
2018-12-12T16:15:09.120Z,58.10
2018-12-12T16:20:12.880Z,57.60
2018-12-12T16:25:16.329Z,57.80
2018-12-12T16:30:19.674Z,57.40
2018-12-12T16:35:23.057Z,57.60
2018-12-12T16:40:28.090Z,57.70
2018-12-12T16:45:31.494Z,58.60
2018-12-12T16:50:34.797Z,58.00
2018-12-12T16:55:38.038Z,58.10
2018-12-12T17:00:41.294Z,58.30
2018-12-12T17:05:44.720Z,58.00
2018-12-12T17:10:48.094Z,57.60
2018-12-12T17:15:52.073Z,57.90
2018-12-12T17:20:55.319Z,58.00
2018-12-12T17:25:59.070Z,58.20
2018-12-12T17:31:02.891Z,58.10
2018-12-12T17:36:06.114Z,58.70
2018-12-12T17:41:09.712Z,58.80
2018-12-12T17:46:12.997Z,59.30
2018-12-12T17:51:16.554Z,58.10
2018-12-12T17:56:20.239Z,57.70
2018-12-12T18:01:23.556Z,57.80
2018-12-12T18:06:26.841Z,57.70
2018-12-12T18:11:30.192Z,57.20
2018-12-12T18:16:33.742Z,56.80
2018-12-12T18:21:37.066Z,56.70
2018-12-12T18:26:40.308Z,57.20
2018-12-12T18:31:43.618Z,57.10
2018-12-12T18:36:48.735Z,57.20
2018-12-12T18:41:52.029Z,56.70
2018-12-12T18:46:55.405Z,56.80
2018-12-12T18:51:58.709Z,56.70
2018-12-12T18:57:01.978Z,55.50
2018-12-12T19:02:05.381Z,56.30
2018-12-12T19:07:08.631Z,56.70
2018-12-12T19:12:12.001Z,57.00
2018-12-12T19:17:15.383Z,57.90
2018-12-12T19:22:19.142Z,56.80
2018-12-12T19:27:22.523Z,56.70
2018-12-12T19:32:25.823Z,56.10
2018-12-12T19:37:29.870Z,56.70
2018-12-12T19:42:33.337Z,56.70
2018-12-12T19:47:36.844Z,56.60
2018-12-12T19:52:40.265Z,55.80
2018-12-12T19:57:43.789Z,55.80
2018-12-12T20:02:47.869Z,57.20
2018-12-12T20:07:51.173Z,57.20
2018-12-12T20:12:54.610Z,57.20
2018-12-12T20:17:58.019Z,56.90
2018-12-12T20:23:01.362Z,56.70
2018-12-12T20:28:04.770Z,55.90
2018-12-12T20:33:08.677Z,56.60
2018-12-12T20:38:13.187Z,57.20
2018-12-12T20:43:16.530Z,57.50
2018-12-12T20:48:20.749Z,57.80
2018-12-12T20:53:26.548Z,57.10
2018-12-12T20:58:29.869Z,57.00
2018-12-12T21:03:33.261Z,57.20
2018-12-12T21:08:37.394Z,56.90
2018-12-12T21:13:41.444Z,56.10
2018-12-12T21:18:45.540Z,56.90
2018-12-12T21:23:48.994Z,56.40
2018-12-12T21:28:52.339Z,56.20
2018-12-12T21:33:55.823Z,56.10
2018-12-12T21:38:59.493Z,56.10
2018-12-12T21:44:03.079Z,56.30
2018-12-12T21:49:06.545Z,56.20
2018-12-12T21:54:09.970Z,56.40
2018-12-12T21:59:13.697Z,56.10
2018-12-12T22:04:17.061Z,56.10
2018-12-12T22:09:20.453Z,55.90
2018-12-12T22:14:25.185Z,56.20
2018-12-12T22:19:28.535Z,56.70
2018-12-12T22:24:31.915Z,56.30
2018-12-12T22:29:35.825Z,56.50
2018-12-12T22:34:39.683Z,56.10
2018-12-12T22:39:42.955Z,56.00
2018-12-12T22:44:46.433Z,56.70
2018-12-12T22:49:49.738Z,56.70
2018-12-12T22:54:52.983Z,56.90
2018-12-12T22:59:56.216Z,57.20
2018-12-12T23:04:59.550Z,57.20
2018-12-12T23:10:02.837Z,57.20
2018-12-12T23:15:06.109Z,57.40
2018-12-12T23:20:09.347Z,57.40
2018-12-12T23:25:12.532Z,57.20
2018-12-12T23:30:16.071Z,57.00
2018-12-12T23:35:19.500Z,56.90
2018-12-12T23:40:22.927Z,57.20
2018-12-12T23:45:26.152Z,57.20
2018-12-12T23:50:29.363Z,57.00
2018-12-12T23:55:33.106Z,57.20
